Time;durP1;ratioP1;P1;durP2;ratioP2;P2;SDS_P1;SDS_P2;PMS_P1;PMS_P2;Temp;Humidity;BMP_temperature;BMP_pressure;BME280_temperature;BME280_humidity;BME280_pressure;Samples;Min_cycle;Max_cycle;Signal;HPM_P1;HPM_P2
2023/06/29 00:02:13;;;;;;;5.63;1.63;;;26.20;42.70;;;;;;6243049;28;20036;-74
2023/06/29 00:05:15;;;;;;;8.35;1.88;;;26.10;42.60;;;;;;6245120;28;20029;-74
2023/06/29 00:08:15;;;;;;;4.55;2.20;;;26.10;42.70;;;;;;6260372;28;20163;-75
2023/06/29 00:11:17;;;;;;;5.63;1.80;;;26.10;42.80;;;;;;6243148;28;20053;-75
2023/06/29 00:14:18;;;;;;;7.72;1.67;;;26.10;42.90;;;;;;6244508;28;20087;-74
2023/06/29 00:17:20;;;;;;;5.97;2.00;;;26.10;43.00;;;;;;6245217;28;20077;-75
2023/06/29 00:20:28;;;;;;;6.82;2.28;;;26.00;43.10;;;;;;6244542;28;20041;-74
2023/06/29 00:23:32;;;;;;;4.22;1.95;;;26.00;43.10;;;;;;6252307;28;20427;-73
2023/06/29 00:26:33;;;;;;;6.18;1.95;;;26.00;43.70;;;;;;6246217;28;20124;-78
2023/06/29 00:29:35;;;;;;;3.58;2.03;;;26.00;43.10;;;;;;6226792;28;20044;-75
2023/06/29 00:32:37;;;;;;;3.97;1.73;;;26.00;43.20;;;;;;6244727;28;20043;-74
2023/06/29 00:35:38;;;;;;;6.35;2.38;;;25.90;43.20;;;;;;6242375;28;20037;-74
2023/06/29 00:38:39;;;;;;;4.25;1.58;;;25.90;43.20;;;;;;6239372;28;20057;-74
2023/06/29 00:41:40;;;;;;;9.52;1.83;;;25.90;43.40;;;;;;6241488;28;20036;-74
2023/06/29 00:44:41;;;;;;;12.05;1.65;;;25.80;43.60;;;;;;6259184;28;20523;-73
2023/06/29 00:47:42;;;;;;;2.08;1.42;;;25.80;43.80;;;;;;6259505;28;20033;-75
2023/06/29 00:50:43;;;;;;;7.22;2.10;;;25.70;43.80;;;;;;6243677;28;20413;-74
2023/06/29 00:53:45;;;;;;;4.93;2.05;;;25.70;43.80;;;;;;6259032;28;20555;-74
2023/06/29 00:56:47;;;;;;;5.85;2.03;;;25.70;43.90;;;;;;6242652;28;20048;-74
2023/06/29 00:59:49;;;;;;;5.10;1.95;;;25.60;43.90;;;;;;6258780;28;20032;-75
2023/06/29 01:02:50;;;;;;;7.75;2.20;;;25.60;44.10;;;;;;6259039;28;20034;-76
2023/06/29 01:05:56;;;;;;;12.07;2.08;;;25.60;44.40;;;;;;6258630;28;20036;-75
2023/06/29 01:09:05;;;;;;;3.85;1.83;;;25.50;44.50;;;;;;6258373;28;20135;-75
2023/06/29 01:12:07;;;;;;;5.43;1.90;;;25.50;44.60;;;;;;6243002;28;20339;-74
2023/06/29 01:15:11;;;;;;;4.35;2.60;;;25.40;44.70;;;;;;6258488;28;20059;-74
2023/06/29 01:18:13;;;;;;;3.15;1.95;;;25.40;45.10;;;;;;6258281;28;20069;-74
2023/06/29 01:21:16;;;;;;;4.53;2.33;;;25.40;45.30;;;;;;6243807;28;20028;-75
2023/06/29 01:24:19;;;;;;;6.53;2.20;;;25.40;45.30;;;;;;6241875;28;20080;-75
2023/06/29 01:27:21;;;;;;;5.97;2.00;;;25.40;45.30;;;;;;6258327;28;20029;-73
2023/06/29 01:30:23;;;;;;;4.60;2.03;;;25.40;45.30;;;;;;6273159;28;20045;-74
2023/06/29 01:33:24;;;;;;;5.93;1.75;;;25.40;45.30;;;;;;6257901;28;20537;-74
2023/06/29 01:36:42;;;;;;;6.65;1.80;;;25.30;45.30;;;;;;6259706;28;20369;-74
2023/06/29 01:39:51;;;;;;;3.42;2.08;;;25.30;45.40;;;;;;6250528;28;20057;-74
2023/06/29 01:42:55;;;;;;;5.22;2.42;;;25.30;45.30;;;;;;6240900;28;20120;-74
2023/06/29 01:45:57;;;;;;;4.35;2.05;;;25.30;45.30;;;;;;6241830;28;20041;-74
2023/06/29 01:48:59;;;;;;;4.93;2.28;;;25.30;45.30;;;;;;6224585;28;20080;-73
2023/06/29 01:51:59;;;;;;;8.20;2.63;;;25.30;45.40;;;;;;6258332;28;20036;-74
2023/06/29 01:55:03;;;;;;;6.50;2.20;;;25.30;45.80;;;;;;6258261;28;20041;-75
2023/06/29 01:58:04;;;;;;;4.22;2.33;;;25.30;45.90;;;;;;6241036;28;20547;-74
2023/06/29 02:01:05;;;;;;;3.10;2.13;;;25.20;46.00;;;;;;6241231;28;20061;-75
2023/06/29 02:04:07;;;;;;;6.32;2.20;;;25.10;46.10;;;;;;6241434;28;20030;-75
2023/06/29 02:07:08;;;;;;;4.75;1.90;;;25.10;46.40;;;;;;6241434;28;20052;-74
2023/06/29 02:10:09;;;;;;;3.97;2.45;;;25.10;46.50;;;;;;6257837;28;20490;-74
2023/06/29 02:13:10;;;;;;;4.90;2.00;;;25.00;46.80;;;;;;6242331;28;20072;-74
2023/06/29 02:16:11;;;;;;;4.38;2.33;;;25.00;46.80;;;;;;6240373;28;20485;-74
2023/06/29 02:19:12;;;;;;;5.53;2.30;;;24.90;46.80;;;;;;6240779;28;20056;-74
2023/06/29 02:22:13;;;;;;;8.30;2.70;;;24.90;46.90;;;;;;6241809;28;20100;-74
2023/06/29 02:25:17;;;;;;;6.40;2.50;;;24.90;47.10;;;;;;6240074;28;20030;-74
2023/06/29 02:28:17;;;;;;;4.45;2.20;;;24.90;47.30;;;;;;6240922;28;20048;-74
2023/06/29 02:31:19;;;;;;;4.15;2.20;;;24.80;47.30;;;;;;6242592;28;20077;-73
2023/06/29 02:34:20;;;;;;;7.65;2.70;;;24.80;47.40;;;;;;6257670;28;20040;-74
2023/06/29 02:37:21;;;;;;;4.93;2.75;;;24.70;47.50;;;;;;6250468;28;20179;-73
2023/06/29 02:40:22;;;;;;;5.90;2.47;;;24.70;47.60;;;;;;6259358;28;20189;-74
2023/06/29 02:43:23;;;;;;;6.53;2.20;;;24.70;47.80;;;;;;6242928;28;20032;-74
2023/06/29 02:46:24;;;;;;;6.63;2.55;;;24.70;47.90;;;;;;6257086;28;20389;-73
2023/06/29 02:49:25;;;;;;;4.68;2.30;;;24.70;48.10;;;;;;6256693;28;20129;-74
2023/06/29 02:52:26;;;;;;;4.18;2.33;;;24.70;48.70;;;;;;6256382;28;20037;-73
2023/06/29 02:55:29;;;;;;;4.53;2.25;;;24.70;48.20;;;;;;6256663;28;20061;-75
2023/06/29 02:58:30;;;;;;;4.03;2.58;;;24.60;48.30;;;;;;6257313;28;20116;-74
2023/06/29 03:01:32;;;;;;;9.43;2.35;;;24.50;48.30;;;;;;6261537;28;20096;-74
2023/06/29 03:04:33;;;;;;;8.07;2.50;;;24.60;48.50;;;;;;6261460;28;20036;-74
2023/06/29 03:07:34;;;;;;;7.20;2.22;;;24.60;48.60;;;;;;6261718;28;20108;-74
2023/06/29 03:10:35;;;;;;;5.25;2.50;;;24.50;48.70;;;;;;6246040;28;20638;-75
2023/06/29 03:13:36;;;;;;;7.30;2.85;;;24.50;48.80;;;;;;6244537;28;20121;-73
2023/06/29 03:16:38;;;;;;;5.72;2.22;;;24.50;48.90;;;;;;6245954;28;20528;-76
2023/06/29 03:19:39;;;;;;;6.97;2.33;;;24.50;48.90;;;;;;6261739;28;20041;-75
2023/06/29 03:22:40;;;;;;;15.73;2.80;;;24.50;49.00;;;;;;6245640;28;20032;-75
2023/06/29 03:25:41;;;;;;;8.35;2.42;;;24.40;48.90;;;;;;6244557;28;20030;-74
2023/06/29 03:28:42;;;;;;;5.05;2.63;;;24.40;48.90;;;;;;6243934;28;20532;-74
2023/06/29 03:31:43;;;;;;;5.68;2.60;;;24.50;49.10;;;;;;6243881;28;20041;-73
2023/06/29 03:34:44;;;;;;;3.65;2.40;;;24.40;49.10;;;;;;6243804;28;20045;-74
2023/06/29 03:37:45;;;;;;;3.10;2.33;;;24.40;49.20;;;;;;6256223;28;20043;-73
2023/06/29 03:40:46;;;;;;;8.90;2.90;;;24.50;49.10;;;;;;6260524;28;20091;-74
2023/06/29 03:43:46;;;;;;;7.60;2.60;;;24.40;49.20;;;;;;6243172;28;20037;-74
2023/06/29 03:46:48;;;;;;;6.55;2.22;;;24.50;49.30;;;;;;6245378;28;20037;-73
2023/06/29 03:49:49;;;;;;;11.13;2.90;;;24.50;49.30;;;;;;6244440;28;20573;-75
2023/06/29 03:52:50;;;;;;;5.00;2.67;;;24.50;49.50;;;;;;6261362;28;20109;-75
2023/06/29 03:55:51;;;;;;;3.95;2.20;;;24.50;49.50;;;;;;6246382;28;20573;-75
2023/06/29 03:58:52;;;;;;;9.25;3.22;;;24.50;49.40;;;;;;6261137;28;20100;-74
2023/06/29 04:01:53;;;;;;;6.40;2.33;;;24.50;49.40;;;;;;6245727;28;20110;-74
2023/06/29 04:04:54;;;;;;;9.52;2.67;;;24.50;49.30;;;;;;6243931;28;20524;-75
2023/06/29 04:07:55;;;;;;;9.02;2.33;;;24.50;49.30;;;;;;6246359;28;20029;-73
2023/06/29 04:10:55;;;;;;;5.43;2.50;;;24.50;49.40;;;;;;6245009;28;20096;-75
2023/06/29 04:13:56;;;;;;;5.03;2.15;;;24.50;49.50;;;;;;6243191;28;20036;-74
2023/06/29 04:16:57;;;;;;;5.30;2.22;;;24.50;49.50;;;;;;6243742;28;20053;-74
2023/06/29 04:19:58;;;;;;;5.78;2.38;;;24.40;49.60;;;;;;6259527;28;20039;-74
2023/06/29 04:22:59;;;;;;;7.30;2.60;;;24.30;49.60;;;;;;6243149;28;20025;-74
2023/06/29 04:26:02;;;;;;;8.02;2.38;;;24.30;49.60;;;;;;6261090;28;20049;-75
2023/06/29 04:29:06;;;;;;;4.85;2.25;;;24.30;49.60;;;;;;6243321;28;20052;-74
2023/06/29 04:32:07;;;;;;;4.78;2.40;;;24.30;49.60;;;;;;6242532;28;20030;-76
2023/06/29 04:35:09;;;;;;;4.70;2.20;;;24.40;49.70;;;;;;6259904;28;20033;-73
2023/06/29 04:38:11;;;;;;;7.45;2.55;;;24.40;49.80;;;;;;6258963;28;20123;-74
2023/06/29 04:41:12;;;;;;;4.93;2.67;;;24.40;49.80;;;;;;6243570;28;20029;-75
2023/06/29 04:44:13;;;;;;;5.10;2.63;;;24.40;49.80;;;;;;6243711;28;20040;-75
2023/06/29 04:47:14;;;;;;;6.90;3.33;;;24.40;49.80;;;;;;6243820;28;20070;-74
2023/06/29 04:50:15;;;;;;;8.88;2.92;;;24.40;49.90;;;;;;6243204;28;20038;-75
2023/06/29 04:53:16;;;;;;;5.57;2.30;;;24.30;49.90;;;;;;6242428;28;20034;-74
2023/06/29 04:56:16;;;;;;;6.95;2.42;;;24.30;49.90;;;;;;6261050;28;20167;-74
2023/06/29 04:59:17;;;;;;;4.93;2.03;;;24.30;49.90;;;;;;6260226;28;20398;-74
2023/06/29 05:02:19;;;;;;;3.90;2.25;;;24.40;49.80;;;;;;6242545;28;20505;-74
2023/06/29 05:05:19;;;;;;;7.82;2.88;;;24.40;50.30;;;;;;6242459;28;20026;-74
2023/06/29 05:08:20;;;;;;;6.32;2.28;;;24.40;49.60;;;;;;6241641;28;20430;-76
2023/06/29 05:11:21;;;;;;;11.38;2.67;;;24.50;49.70;;;;;;6240752;28;20390;-75
2023/06/29 05:14:22;;;;;;;6.55;2.85;;;24.50;49.70;;;;;;6242307;28;20330;-74
2023/06/29 05:17:23;;;;;;;4.38;2.75;;;24.50;49.60;;;;;;6257547;28;20036;-75
2023/06/29 05:20:25;;;;;;;8.80;2.88;;;24.50;49.50;;;;;;6242353;28;20029;-75
2023/06/29 05:23:26;;;;;;;7.82;2.83;;;24.60;49.60;;;;;;6241980;28;20087;-75
2023/06/29 05:26:30;;;;;;;15.00;3.40;;;24.60;49.50;;;;;;6242502;28;20068;-74
2023/06/29 05:29:32;;;;;;;4.28;2.70;;;24.60;49.50;;;;;;6236761;28;20033;-75
2023/06/29 05:32:33;;;;;;;4.20;2.40;;;24.70;49.50;;;;;;6256599;28;20599;-74
2023/06/29 05:35:35;;;;;;;8.15;2.70;;;24.80;49.50;;;;;;6240533;28;20033;-73
2023/06/29 05:38:36;;;;;;;8.00;2.20;;;24.80;49.30;;;;;;6272138;28;20030;-73
2023/06/29 05:41:38;;;;;;;7.95;2.97;;;24.90;49.30;;;;;;6240534;28;20466;-74
2023/06/29 05:44:38;;;;;;;5.28;2.75;;;25.00;49.10;;;;;;6241698;28;20101;-75
2023/06/29 05:47:39;;;;;;;6.90;2.60;;;25.00;48.90;;;;;;6240835;28;20148;-75
2023/06/29 05:50:40;;;;;;;10.73;2.63;;;25.00;48.70;;;;;;6256674;28;20432;-74
2023/06/29 05:53:41;;;;;;;6.95;2.88;;;25.10;49.30;;;;;;6256704;28;20132;-75
2023/06/29 05:56:45;;;;;;;7.20;3.13;;;25.10;48.60;;;;;;6241767;28;20033;-75
2023/06/29 05:59:45;;;;;;;7.28;2.50;;;25.10;48.50;;;;;;6239860;28;20033;-74
2023/06/29 06:02:46;;;;;;;10.43;2.65;;;25.10;48.30;;;;;;6238720;28;20021;-74
2023/06/29 06:05:48;;;;;;;6.25;2.33;;;25.30;48.40;;;;;;6240257;28;20478;-74
2023/06/29 06:08:49;;;;;;;9.65;2.92;;;25.30;48.20;;;;;;6239671;28;20108;-74
2023/06/29 06:11:50;;;;;;;5.53;2.72;;;25.30;48.10;;;;;;6240903;28;20523;-73
2023/06/29 06:14:52;;;;;;;7.63;3.13;;;25.30;48.10;;;;;;6242381;28;20033;-74
2023/06/29 06:17:53;;;;;;;5.88;2.55;;;25.40;48.00;;;;;;6257191;28;20048;-75
2023/06/29 06:20:53;;;;;;;7.38;2.97;;;25.40;47.90;;;;;;6240827;28;20127;-73
2023/06/29 06:23:54;;;;;;;8.98;2.88;;;25.50;47.80;;;;;;6239885;28;20686;-74
2023/06/29 06:26:55;;;;;;;5.47;3.17;;;25.50;47.70;;;;;;6239555;28;20049;-75
2023/06/29 06:29:57;;;;;;;7.88;3.10;;;25.60;47.60;;;;;;6240692;28;20295;-74
2023/06/29 06:33:01;;;;;;;9.90;3.15;;;25.60;47.50;;;;;;6239030;28;20041;-74
2023/06/29 06:36:02;;;;;;;7.95;3.00;;;25.80;47.40;;;;;;6243727;28;20203;-74
2023/06/29 06:39:03;;;;;;;8.85;2.70;;;25.80;47.20;;;;;;6246058;28;20497;-73
2023/06/29 06:42:04;;;;;;;8.20;2.45;;;25.90;47.00;;;;;;6243630;28;20029;-75
2023/06/29 06:45:07;;;;;;;12.93;4.15;;;26.00;46.80;;;;;;6243478;28;20115;-74
2023/06/29 06:48:09;;;;;;;9.05;3.42;;;26.10;46.70;;;;;;6243821;28;20045;-75
2023/06/29 06:51:10;;;;;;;8.88;3.15;;;26.20;46.50;;;;;;6245080;28;20052;-74
2023/06/29 06:54:14;;;;;;;7.53;3.20;;;26.20;46.30;;;;;;6260794;28;20049;-73
2023/06/29 06:57:15;;;;;;;6.18;3.15;;;26.40;46.20;;;;;;6246288;28;20026;-74
2023/06/29 07:00:16;;;;;;;8.43;3.30;;;26.40;46.50;;;;;;6245365;28;20080;-74
2023/06/29 07:03:19;;;;;;;8.27;3.33;;;26.40;45.70;;;;;;6243135;28;20025;-73
2023/06/29 07:06:19;;;;;;;4.57;2.80;;;26.40;45.70;;;;;;6242884;28;20112;-74
2023/06/29 07:09:20;;;;;;;12.73;3.58;;;26.40;45.80;;;;;;6259997;28;20055;-74
2023/06/29 07:12:21;;;;;;;6.88;2.75;;;26.50;45.70;;;;;;6257582;28;20060;-76
2023/06/29 07:15:22;;;;;;;6.82;2.80;;;26.60;45.60;;;;;;6247867;28;20040;-74
2023/06/29 07:18:23;;;;;;;18.80;3.15;;;26.70;45.50;;;;;;6244965;28;20100;-74
2023/06/29 07:21:24;;;;;;;6.88;3.25;;;26.80;45.10;;;;;;6244562;28;20124;-77
2023/06/29 07:24:25;;;;;;;9.43;3.05;;;26.90;45.00;;;;;;6243508;28;20545;-75
2023/06/29 07:27:26;;;;;;;13.07;3.60;;;27.00;45.00;;;;;;6242844;28;20034;-74
2023/06/29 07:30:27;;;;;;;6.03;2.95;;;27.10;44.80;;;;;;6241136;28;20481;-76
2023/06/29 07:33:30;;;;;;;9.27;3.30;;;27.30;44.40;;;;;;6240708;28;20040;-75
2023/06/29 07:36:31;;;;;;;6.43;2.78;;;27.40;44.30;;;;;;6260697;28;20080;-75
2023/06/29 07:39:33;;;;;;;4.63;2.72;;;27.50;44.10;;;;;;6255262;28;20039;-75
2023/06/29 07:42:34;;;;;;;8.52;2.90;;;27.60;44.00;;;;;;6240758;28;20395;-75
2023/06/29 07:45:34;;;;;;;5.72;2.78;;;27.70;43.70;;;;;;6241148;28;20035;-74
2023/06/29 07:48:35;;;;;;;5.85;2.92;;;27.70;43.40;;;;;;6249229;28;20112;-75
2023/06/29 07:51:37;;;;;;;4.72;2.90;;;27.70;43.40;;;;;;6269696;28;20028;-77
2023/06/29 07:54:37;;;;;;;6.90;3.33;;;27.70;43.20;;;;;;6249170;28;20049;-75
2023/06/29 07:57:38;;;;;;;8.32;2.75;;;27.80;43.20;;;;;;6265835;28;20086;-75
2023/06/29 08:00:39;;;;;;;8.27;2.72;;;27.80;43.00;;;;;;6269275;28;20032;-75
2023/06/29 08:03:40;;;;;;;10.85;2.80;;;27.90;42.90;;;;;;6258414;28;20079;-74
2023/06/29 08:06:43;;;;;;;10.07;2.92;;;27.90;42.80;;;;;;6242502;28;20121;-74
2023/06/29 08:09:44;;;;;;;9.50;2.70;;;28.00;42.70;;;;;;6241897;28;20041;-75
2023/06/29 08:12:45;;;;;;;7.53;3.00;;;28.10;42.70;;;;;;6243231;28;20053;-75
2023/06/29 08:15:47;;;;;;;11.45;2.97;;;28.20;42.50;;;;;;6243259;28;20037;-77
2023/06/29 08:18:47;;;;;;;9.27;3.22;;;28.30;42.30;;;;;;6240768;28;20181;-75
2023/06/29 08:21:48;;;;;;;6.22;2.83;;;28.50;42.00;;;;;;6240035;28;20040;-75
2023/06/29 08:24:49;;;;;;;6.63;3.10;;;28.60;41.80;;;;;;6240380;28;20140;-75
2023/06/29 08:27:50;;;;;;;7.05;3.22;;;28.90;41.60;;;;;;6187958;28;1568570;-75
2023/06/29 08:30:51;;;;;;;17.63;3.08;;;29.00;41.40;;;;;;6257973;28;20033;-75
2023/06/29 08:33:53;;;;;;;11.65;2.90;;;29.10;41.10;;;;;;6257655;28;20029;-74
2023/06/29 08:36:54;;;;;;;10.00;3.53;;;29.30;40.90;;;;;;6246602;28;20039;-74
2023/06/29 08:39:58;;;;;;;11.38;3.20;;;29.50;40.60;;;;;;6267699;28;20478;-75
2023/06/29 08:42:59;;;;;;;8.98;3.28;;;29.50;40.50;;;;;;6242618;28;20063;-75
2023/06/29 08:46:01;;;;;;;9.98;3.33;;;29.50;40.50;;;;;;6258473;28;20129;-74
2023/06/29 08:49:06;;;;;;;7.53;3.40;;;29.60;40.50;;;;;;6268013;28;20037;-76
2023/06/29 08:52:11;;;;;;;7.35;3.10;;;29.60;40.50;;;;;;6265606;28;20048;-76
2023/06/29 08:55:12;;;;;;;6.25;2.95;;;29.60;40.50;;;;;;6265615;28;20116;-76
2023/06/29 08:58:13;;;;;;;11.43;3.05;;;29.70;40.30;;;;;;6264507;28;20524;-75
2023/06/29 09:01:14;;;;;;;8.43;3.40;;;29.80;40.20;;;;;;6264957;28;20029;-75
2023/06/29 09:04:15;;;;;;;6.07;2.83;;;29.90;40.10;;;;;;6258073;28;20022;-74
2023/06/29 09:07:16;;;;;;;7.65;3.42;;;29.90;40.00;;;;;;6242272;28;20061;-75
2023/06/29 09:10:17;;;;;;;13.80;3.47;;;30.00;40.00;;;;;;6241013;28;20033;-75
2023/06/29 09:13:18;;;;;;;4.05;2.60;;;30.00;40.10;;;;;;6239435;28;20081;-76
2023/06/29 09:16:20;;;;;;;20.50;2.75;;;30.10;40.00;;;;;;6241679;28;20048;-76
2023/06/29 09:19:24;;;;;;;6.32;2.55;;;30.30;39.70;;;;;;6241023;28;20025;-75
2023/06/29 09:22:27;;;;;;;6.47;2.50;;;30.30;39.40;;;;;;6239977;28;20176;-75
2023/06/29 09:25:30;;;;;;;8.90;2.85;;;30.40;39.20;;;;;;6245908;28;20060;-76
2023/06/29 09:28:35;;;;;;;11.93;3.00;;;30.40;39.00;;;;;;6260709;28;20109;-75
2023/06/29 09:31:37;;;;;;;7.13;2.30;;;30.50;39.00;;;;;;6256105;28;20489;-75
2023/06/29 09:34:47;;;;;;;12.43;3.13;;;30.60;38.90;;;;;;6256630;28;20025;-76
2023/06/29 09:37:49;;;;;;;5.53;2.70;;;30.60;38.50;;;;;;6269266;28;20111;-76
2023/06/29 09:40:51;;;;;;;8.93;2.50;;;30.80;38.40;;;;;;6242986;28;20022;-75
2023/06/29 09:43:52;;;;;;;8.73;2.53;;;30.90;38.00;;;;;;6241175;28;20021;-74
2023/06/29 09:47:05;;;;;;;7.32;2.30;;;31.10;37.70;;;;;;6239344;28;20033;-74
2023/06/29 09:50:19;;;;;;;8.00;2.15;;;31.10;38.10;;;;;;6239558;28;20414;-76
2023/06/29 09:53:31;;;;;;;9.73;2.97;;;31.20;37.10;;;;;;6239270;28;20056;-75
2023/06/29 09:56:36;;;;;;;4.25;2.10;;;31.20;36.60;;;;;;6241024;28;20649;-74
2023/06/29 09:59:41;;;;;;;6.40;2.70;;;31.20;36.60;;;;;;6241588;28;20120;-76
2023/06/29 10:02:42;;;;;;;7.05;2.80;;;31.10;36.50;;;;;;6241055;28;20377;-75
2023/06/29 10:05:43;;;;;;;9.25;2.70;;;31.20;36.50;;;;;;6255737;28;20460;-76
2023/06/29 10:08:50;;;;;;;7.63;2.38;;;31.20;36.30;;;;;;6242444;28;20416;-75
2023/06/29 10:11:53;;;;;;;5.32;2.50;;;31.40;36.30;;;;;;6239843;28;20152;-76
2023/06/29 10:15:00;;;;;;;8.50;2.90;;;31.50;36.20;;;;;;6240792;28;20029;-75
2023/06/29 10:18:11;;;;;;;8.52;2.63;;;31.70;36.00;;;;;;6239337;28;20462;-76
2023/06/29 10:21:11;;;;;;;10.75;3.10;;;31.80;35.80;;;;;;6239206;28;20045;-75
2023/06/29 10:24:18;;;;;;;9.90;2.88;;;32.10;35.80;;;;;;6238973;28;20462;-75
2023/06/29 10:27:21;;;;;;;7.40;2.80;;;32.20;35.60;;;;;;6238721;28;20041;-75
2023/06/29 10:30:21;;;;;;;14.32;2.75;;;32.30;35.50;;;;;;6238819;28;20124;-74
2023/06/29 10:33:23;;;;;;;5.05;2.50;;;32.50;35.30;;;;;;6239500;28;20052;-74
2023/06/29 10:36:24;;;;;;;6.97;2.45;;;32.60;35.00;;;;;;6256656;28;20795;-74
2023/06/29 10:39:41;;;;;;;5.85;2.58;;;32.80;34.90;;;;;;6241503;28;20436;-75
2023/06/29 10:42:42;;;;;;;5.13;2.33;;;33.00;34.80;;;;;;6239944;28;20025;-76
2023/06/29 10:45:43;;;;;;;5.25;2.20;;;33.30;34.50;;;;;;6238962;28;20033;-75
2023/06/29 10:48:59;;;;;;;7.38;2.78;;;33.40;34.10;;;;;;6255543;28;20034;-75
2023/06/29 10:52:04;;;;;;;6.25;2.50;;;33.50;33.70;;;;;;6238487;28;20029;-75
2023/06/29 10:55:25;;;;;;;9.32;2.58;;;33.40;33.40;;;;;;6238859;28;20087;-76
2023/06/29 10:58:31;;;;;;;6.70;2.65;;;33.40;33.40;;;;;;6239951;28;20033;-75
2023/06/29 11:01:32;;;;;;;12.60;2.25;;;33.50;33.20;;;;;;6238079;28;20040;-74
2023/06/29 11:04:34;;;;;;;7.72;2.80;;;33.60;32.80;;;;;;6254968;28;20124;-76
2023/06/29 11:07:38;;;;;;;9.27;3.10;;;33.70;32.30;;;;;;6238352;28;20044;-74
2023/06/29 11:10:38;;;;;;;5.95;2.95;;;33.90;31.90;;;;;;6238674;28;20055;-75
2023/06/29 11:13:39;;;;;;;10.30;3.13;;;34.40;31.00;;;;;;6222474;28;20117;-75
2023/06/29 11:16:40;;;;;;;7.97;2.88;;;35.20;30.30;;;;;;6239222;28;20026;-75
2023/06/29 11:19:49;;;;;;;9.60;3.30;;;35.80;29.70;;;;;;6239173;28;20532;-75
2023/06/29 11:22:51;;;;;;;6.40;3.28;;;36.40;29.10;;;;;;6244248;28;20430;-75
2023/06/29 11:25:52;;;;;;;10.55;3.22;;;37.20;28.60;;;;;;6259082;28;20593;-76
2023/06/29 11:28:53;;;;;;;7.75;2.67;;;37.60;28.20;;;;;;6259042;28;20094;-75
2023/06/29 11:31:54;;;;;;;10.35;3.47;;;37.90;28.00;;;;;;6258156;28;20081;-75
2023/06/29 11:34:59;;;;;;;11.20;2.95;;;38.20;27.80;;;;;;6243622;28;20017;-75
2023/06/29 11:38:00;;;;;;;11.05;3.85;;;38.40;27.60;;;;;;6259580;28;20052;-76
2023/06/29 11:41:03;;;;;;;8.80;3.67;;;38.50;27.30;;;;;;6267314;28;20052;-76
2023/06/29 11:44:05;;;;;;;7.43;3.17;;;38.60;27.40;;;;;;6268174;28;20094;-75
2023/06/29 11:47:06;;;;;;;5.90;2.97;;;38.70;27.40;;;;;;6266575;28;20081;-73
2023/06/29 11:50:10;;;;;;;9.77;3.45;;;38.80;27.20;;;;;;6247722;28;20109;-75
2023/06/29 11:53:12;;;;;;;7.28;2.88;;;39.00;27.00;;;;;;6243853;28;20454;-79
2023/06/29 11:56:38;;;;;;;8.02;3.20;;;39.20;26.80;;;;;;6243400;28;20045;-75
2023/06/29 11:59:39;;;;;;;4.30;2.83;;;39.00;26.80;;;;;;6258598;28;20029;-74
2023/06/29 12:02:41;;;;;;;13.40;3.67;;;38.90;26.80;;;;;;6241761;28;20021;-74
2023/06/29 12:05:41;;;;;;;13.82;3.63;;;38.90;26.70;;;;;;6256349;28;20438;-75
2023/06/29 12:08:44;;;;;;;5.65;3.22;;;39.10;26.50;;;;;;6242936;28;20065;-75
2023/06/29 12:11:54;;;;;;;9.57;3.40;;;39.30;26.30;;;;;;6243336;28;20460;-77
2023/06/29 12:14:55;;;;;;;5.40;3.13;;;39.50;26.20;;;;;;6258609;28;20087;-75
2023/06/29 12:18:10;;;;;;;9.88;3.95;;;39.70;26.00;;;;;;6259268;28;20037;-76
2023/06/29 12:21:21;;;;;;;9.23;3.65;;;39.80;25.90;;;;;;6243346;28;20030;-75
2023/06/29 12:24:25;;;;;;;9.88;3.45;;;39.70;25.80;;;;;;6242738;28;20053;-74
2023/06/29 12:27:26;;;;;;;8.45;3.70;;;39.80;25.80;;;;;;6242882;28;20437;-75
2023/06/29 12:30:27;;;;;;;8.90;3.70;;;39.80;25.90;;;;;;6254797;28;20092;-75
2023/06/29 12:33:28;;;;;;;10.60;3.97;;;39.70;26.00;;;;;;6266401;28;20033;-75
2023/06/29 12:36:29;;;;;;;7.95;3.95;;;39.60;26.10;;;;;;6265776;28;20036;-73
2023/06/29 12:39:30;;;;;;;5.95;3.80;;;39.60;26.00;;;;;;6282689;28;20063;-74
2023/06/29 12:42:32;;;;;;;8.48;3.58;;;39.60;26.00;;;;;;6282888;28;20064;-74
2023/06/29 12:45:34;;;;;;;8.43;3.85;;;39.40;26.20;;;;;;6271118;28;20029;-75
2023/06/29 12:48:35;;;;;;;5.75;3.47;;;39.50;26.30;;;;;;6242603;28;20029;-74
2023/06/29 12:51:36;;;;;;;9.02;3.78;;;39.60;26.20;;;;;;6243072;28;20129;-74
2023/06/29 12:54:37;;;;;;;8.10;3.40;;;39.50;26.20;;;;;;6241165;28;20037;-75
2023/06/29 12:57:39;;;;;;;11.82;4.00;;;39.20;26.50;;;;;;6242874;28;20120;-76
2023/06/29 13:00:40;;;;;;;10.85;4.20;;;39.00;26.80;;;;;;6257325;28;20189;-74
2023/06/29 13:03:40;;;;;;;7.18;3.92;;;38.80;27.00;;;;;;6240387;28;20033;-74
2023/06/29 13:06:41;;;;;;;5.75;3.50;;;38.70;26.90;;;;;;6257746;28;20083;-75
2023/06/29 13:09:43;;;;;;;9.50;4.20;;;38.60;26.90;;;;;;6258178;28;20037;-74
2023/06/29 13:12:44;;;;;;;8.48;3.83;;;38.20;27.40;;;;;;6241908;28;20060;-75
2023/06/29 13:15:45;;;;;;;6.68;3.97;;;37.70;27.80;;;;;;6242639;28;20057;-76
2023/06/29 13:18:46;;;;;;;7.28;4.22;;;37.50;28.10;;;;;;6257953;28;20029;-77
2023/06/29 13:21:47;;;;;;;7.85;4.57;;;37.50;28.20;;;;;;6258180;28;20048;-74
2023/06/29 13:24:48;;;;;;;13.10;4.35;;;38.10;27.70;;;;;;6241618;28;20029;-74
2023/06/29 13:27:49;;;;;;;6.20;3.92;;;38.90;27.10;;;;;;6256681;28;20469;-75
2023/06/29 13:30:50;;;;;;;24.73;5.00;;;39.20;26.60;;;;;;6257180;28;20064;-75
2023/06/29 13:33:51;;;;;;;6.20;4.30;;;39.60;26.40;;;;;;6241437;28;20422;-73
2023/06/29 13:36:52;;;;;;;8.60;4.15;;;40.20;26.00;;;;;;6246986;28;20059;-75
2023/06/29 13:39:53;;;;;;;12.25;4.15;;;40.70;25.40;;;;;;6251303;28;20017;-75
2023/06/29 13:42:54;;;;;;;10.70;4.07;;;41.00;25.20;;;;;;6255033;28;20134;-75
2023/06/29 13:45:55;;;;;;;6.50;4.00;;;41.00;25.00;;;;;;6240310;28;20098;-75
2023/06/29 13:48:55;;;;;;;9.48;4.35;;;40.60;25.40;;;;;;6241561;28;20040;-74
2023/06/29 13:51:57;;;;;;;7.63;3.95;;;41.10;25.20;;;;;;6246604;28;20049;-76
2023/06/29 13:54:58;;;;;;;8.07;4.18;;;41.50;24.70;;;;;;6242437;28;20021;-75
2023/06/29 13:58:00;;;;;;;10.43;4.00;;;41.20;24.80;;;;;;6239822;28;20410;-74
2023/06/29 14:01:01;;;;;;;7.47;4.10;;;40.30;25.40;;;;;;6240974;28;20120;-76
2023/06/29 14:04:03;;;;;;;10.23;4.53;;;39.80;25.90;;;;;;6241641;28;20091;-76
2023/06/29 14:07:04;;;;;;;7.25;4.00;;;40.10;25.80;;;;;;6239832;28;20028;-75
2023/06/29 14:10:05;;;;;;;8.95;4.07;;;41.00;25.10;;;;;;6239604;28;20040;-76
2023/06/29 14:13:06;;;;;;;9.60;4.55;;;41.80;24.40;;;;;;6239770;28;20045;-75
2023/06/29 14:16:07;;;;;;;10.27;4.93;;;42.20;23.90;;;;;;6256301;28;20335;-75
2023/06/29 14:19:08;;;;;;;6.50;4.32;;;42.70;23.40;;;;;;6241063;28;20087;-75
2023/06/29 14:22:11;;;;;;;6.18;3.95;;;42.70;23.40;;;;;;6241735;28;20072;-76
2023/06/29 14:25:11;;;;;;;7.82;4.13;;;42.90;23.30;;;;;;6241557;28;20037;-75
2023/06/29 14:28:12;;;;;;;6.60;3.83;;;42.90;23.20;;;;;;6255528;28;20041;-75
2023/06/29 14:31:15;;;;;;;7.78;4.90;;;42.50;23.10;;;;;;6256427;28;20113;-76
2023/06/29 14:34:16;;;;;;;9.23;4.72;;;41.80;23.80;;;;;;6256330;28;20071;-75
2023/06/29 14:37:17;;;;;;;5.65;3.85;;;40.70;24.60;;;;;;6244855;28;20139;-73
2023/06/29 14:40:18;;;;;;;7.90;4.85;;;39.80;25.50;;;;;;6257048;28;20029;-76
2023/06/29 14:43:19;;;;;;;14.82;4.75;;;39.60;25.80;;;;;;6241176;28;20029;-74
2023/06/29 14:46:20;;;;;;;14.55;4.10;;;39.60;26.00;;;;;;6239245;28;20397;-75
2023/06/29 14:49:20;;;;;;;7.50;4.30;;;40.30;25.60;;;;;;6238514;28;20120;-74
2023/06/29 14:52:23;;;;;;;8.77;5.03;;;41.00;25.00;;;;;;6239095;28;20063;-74
2023/06/29 14:55:26;;;;;;;6.90;4.40;;;42.00;24.30;;;;;;6244870;28;20036;-74
2023/06/29 14:58:27;;;;;;;15.10;4.93;;;42.40;23.70;;;;;;6269952;28;20083;-74
2023/06/29 15:01:31;;;;;;;9.45;5.70;;;42.20;24.30;;;;;;6267434;28;20025;-75
2023/06/29 15:04:32;;;;;;;8.80;4.85;;;42.10;23.80;;;;;;6252932;28;20029;-76
2023/06/29 15:07:33;;;;;;;10.73;4.90;;;42.70;23.40;;;;;;6243095;28;20040;-76
2023/06/29 15:10:35;;;;;;;11.95;5.05;;;42.50;23.20;;;;;;6243150;28;20037;-75
2023/06/29 15:13:36;;;;;;;10.32;4.97;;;41.90;23.80;;;;;;6244572;28;20116;-75
2023/06/29 15:16:37;;;;;;;7.10;4.60;;;41.40;24.20;;;;;;6260385;28;20430;-76
2023/06/29 15:19:38;;;;;;;8.35;4.85;;;41.20;24.20;;;;;;6259755;28;20041;-74
2023/06/29 15:22:39;;;;;;;13.95;5.22;;;41.50;24.00;;;;;;6243104;28;20374;-75
2023/06/29 15:25:40;;;;;;;10.57;4.47;;;42.00;23.90;;;;;;6244294;28;20477;-75
2023/06/29 15:28:41;;;;;;;10.18;5.75;;;42.50;23.30;;;;;;6242411;28;20171;-74
2023/06/29 15:31:42;;;;;;;8.55;4.75;;;42.80;23.10;;;;;;6242432;28;20045;-76
2023/06/29 15:34:43;;;;;;;8.70;5.32;;;43.20;22.60;;;;;;6259307;28;20417;-75
2023/06/29 15:37:44;;;;;;;8.77;5.13;;;43.50;22.20;;;;;;6255496;28;20469;-74
2023/06/29 15:40:45;;;;;;;11.32;5.18;;;43.80;21.70;;;;;;6247029;28;20040;-75
2023/06/29 15:43:46;;;;;;;12.05;5.30;;;44.10;21.30;;;;;;6258122;28;20022;-75
2023/06/29 15:46:54;;;;;;;9.02;4.30;;;44.30;21.10;;;;;;6242480;28;20061;-75